メインページ
METAR-TAF:

METAR-TAF

空港 :

大島空港

新居大島, 日本

緯度: 34-47N, 経度: 139-22E, 海抜: 38m

現時点の気象観測

当レポートは1時間19分前の08:00(UTC)に作成
の風 7kt
気温 25°C
湿度 79%
気圧 1016 hPa
視程10km以上
高度2000ftの雲はほとんどない
高度2500ftの雲は散在している
高度18000ftの千切れ雲あり
弱いにわか雨

METAR: RJTO 230800Z 08007KT 9999 -SHRA FEW020 SCT025 BKN180 25/21 Q1016

時間: 18:19 (09:19 UTC)


TAF: 見つかりません

4,000以上の空港の気象観測と天気予報(METAR報とTAF報)

利用可能な観測所は地図上に黄色い丸と赤い丸で示す。

丸の上にカーソルを重ねると観測所名を参照できる。

次にクリックすると気象観測と天気予報を参照できる。

マップの切り替え:黒色「×」印の緑ボタンをクリックして拡大、「-」印の緑ボタンをクリックして縮小、緑色の三角印をクリックして隣りの地図に切り替え


METAR-TAF: